createdAt,value
2023-03-13T00:01:44.237Z,66.63
2023-03-13T00:04:12.066Z,66.62
2023-03-13T00:06:40.839Z,66.49
2023-03-13T00:09:11.645Z,66.56
2023-03-13T00:11:39.355Z,66.67
2023-03-13T00:14:08.464Z,66.74
2023-03-13T00:16:37.424Z,66.65
2023-03-13T00:19:07.286Z,66.77
2023-03-13T00:21:36.889Z,66.95
2023-03-13T00:24:04.814Z,67.46
2023-03-13T00:26:32.441Z,67.51
2023-03-13T00:29:00.282Z,67.72
2023-03-13T00:31:31.918Z,67.70
2023-03-13T00:34:02.312Z,67.94
2023-03-13T00:36:34.053Z,67.95
2023-03-13T00:39:05.733Z,68.06
2023-03-13T00:41:37.656Z,68.20
2023-03-13T00:44:06.178Z,68.32
2023-03-13T00:46:34.570Z,68.52
2023-03-13T00:49:03.238Z,68.53
2023-03-13T00:51:30.968Z,68.66
2023-03-13T00:54:00.608Z,68.70
2023-03-13T00:56:29.516Z,68.81
2023-03-13T00:58:57.506Z,68.81
2023-03-13T01:01:29.041Z,68.81
2023-03-13T01:04:00.950Z,68.78
2023-03-13T01:06:33.688Z,69.02
2023-03-13T01:09:04.114Z,69.10
2023-03-13T01:11:36.047Z,68.98
2023-03-13T01:14:08.045Z,68.96
2023-03-13T01:16:37.623Z,69.28
2023-03-13T01:19:12.550Z,69.24
2023-03-13T01:21:40.605Z,69.29
2023-03-13T01:24:09.200Z,69.32
2023-03-13T01:26:37.033Z,69.24
2023-03-13T01:29:04.853Z,69.22
2023-03-13T01:31:35.638Z,69.28
2023-03-13T01:34:06.583Z,69.28
2023-03-13T01:36:37.251Z,69.37
2023-03-13T01:39:05.896Z,69.42
2023-03-13T01:41:33.735Z,69.42
2023-03-13T01:44:01.287Z,69.36
2023-03-13T01:46:36.597Z,69.39
2023-03-13T01:49:23.374Z,69.68
2023-03-13T01:51:58.426Z,69.55
2023-03-13T01:54:40.927Z,69.57
2023-03-13T01:57:17.187Z,69.76
2023-03-13T01:59:53.127Z,69.96
2023-03-13T02:02:22.686Z,70.04
2023-03-13T02:04:55.318Z,70.25
2023-03-13T02:07:37.086Z,70.29
2023-03-13T02:10:06.471Z,70.38
2023-03-13T02:12:37.939Z,70.36
2023-03-13T02:15:20.191Z,70.42
2023-03-13T02:17:50.291Z,70.66
2023-03-13T02:20:21.781Z,70.76
2023-03-13T02:23:31.378Z,70.76
2023-03-13T02:25:59.391Z,70.85
2023-03-13T02:28:33.133Z,70.92
2023-03-13T02:31:01.997Z,70.88
2023-03-13T02:33:36.282Z,70.75
2023-03-13T02:36:07.648Z,70.74
2023-03-13T02:38:41.688Z,70.72
2023-03-13T02:41:10.784Z,70.82
2023-03-13T02:43:40.016Z,70.83
2023-03-13T02:46:15.179Z,70.86
2023-03-13T02:48:52.748Z,70.75
2023-03-13T02:51:37.812Z,70.91
2023-03-13T02:54:10.590Z,70.81
2023-03-13T02:56:41.895Z,70.75
2023-03-13T02:59:10.123Z,70.88
2023-03-13T03:01:39.529Z,70.89
2023-03-13T03:04:07.612Z,70.92
2023-03-13T03:06:35.609Z,70.88
2023-03-13T03:09:05.260Z,70.89
2023-03-13T03:11:34.783Z,70.80
2023-03-13T03:14:05.452Z,70.78
2023-03-13T03:16:35.129Z,70.90
2023-03-13T03:19:06.180Z,70.89
2023-03-13T03:21:35.049Z,70.84
2023-03-13T03:24:03.483Z,70.77
2023-03-13T03:26:31.542Z,70.77
2023-03-13T03:29:00.146Z,70.74
2023-03-13T03:31:28.537Z,70.65
2023-03-13T03:33:57.418Z,70.52
2023-03-13T03:36:25.540Z,70.43
2023-03-13T03:38:53.619Z,70.45
2023-03-13T03:41:23.260Z,70.44
2023-03-13T03:43:51.316Z,70.54
2023-03-13T03:46:21.037Z,70.54
2023-03-13T03:48:48.814Z,70.51
2023-03-13T03:51:16.684Z,70.50
2023-03-13T03:53:45.410Z,70.60
2023-03-13T03:56:14.102Z,70.62
2023-03-13T03:58:43.790Z,70.73
2023-03-13T04:01:19.456Z,70.82
2023-03-13T04:03:48.621Z,70.82
2023-03-13T04:06:16.744Z,70.87
2023-03-13T04:08:45.246Z,70.94
2023-03-13T04:11:14.871Z,70.97
2023-03-13T04:13:44.556Z,71.00
2023-03-13T04:16:12.543Z,71.08
2023-03-13T04:18:41.063Z,70.97
2023-03-13T04:21:08.902Z,71.02
2023-03-13T04:23:44.322Z,71.05
2023-03-13T04:26:13.919Z,70.92
2023-03-13T04:28:42.118Z,70.79
2023-03-13T04:31:11.945Z,70.75
2023-03-13T04:33:41.588Z,70.72
2023-03-13T04:36:27.505Z,70.71
2023-03-13T04:39:03.060Z,70.67
2023-03-13T04:41:35.813Z,70.63
2023-03-13T04:44:11.625Z,70.56
2023-03-13T04:46:59.172Z,70.55
2023-03-13T04:49:37.538Z,70.46
2023-03-13T04:52:19.417Z,70.54
2023-03-13T04:55:01.036Z,70.54
2023-03-13T04:57:45.813Z,70.61
2023-03-13T05:00:16.923Z,70.54
2023-03-13T05:02:52.662Z,70.67
2023-03-13T05:05:23.244Z,72.07
2023-03-13T05:08:10.375Z,72.25
2023-03-13T05:10:47.829Z,72.12
2023-03-13T05:13:17.681Z,72.07
2023-03-13T05:15:56.341Z,70.79
2023-03-13T05:18:38.802Z,69.48
2023-03-13T05:21:09.617Z,68.72
2023-03-13T05:23:37.315Z,66.58
2023-03-13T05:26:18.771Z,65.74
2023-03-13T05:28:57.302Z,65.05
2023-03-13T05:31:28.090Z,65.02
2023-03-13T05:34:15.915Z,65.19
2023-03-13T05:36:54.582Z,65.14
2023-03-13T05:39:36.010Z,65.25
2023-03-13T05:42:22.272Z,65.67
2023-03-13T05:45:04.522Z,65.36
2023-03-13T05:47:32.356Z,65.10
2023-03-13T05:50:06.372Z,64.61
2023-03-13T05:53:04.445Z,64.43
2023-03-13T05:55:51.665Z,64.20
2023-03-13T05:58:21.341Z,64.06
2023-03-13T06:00:57.360Z,63.93
2023-03-13T06:03:27.022Z,63.84
2023-03-13T06:05:59.534Z,63.66
2023-03-13T06:08:29.269Z,63.43
2023-03-13T06:11:00.395Z,63.18
2023-03-13T06:13:28.551Z,62.98
2023-03-13T06:15:58.713Z,62.74
2023-03-13T06:18:40.361Z,63.30
2023-03-13T06:21:08.180Z,63.49
2023-03-13T06:23:36.720Z,64.00
2023-03-13T06:26:04.687Z,63.97
2023-03-13T06:28:32.548Z,63.87
2023-03-13T06:31:05.407Z,63.43
2023-03-13T06:33:33.811Z,63.57
2023-03-13T06:36:02.680Z,63.00
2023-03-13T06:38:30.738Z,62.83
2023-03-13T06:40:58.605Z,62.75
2023-03-13T06:43:27.109Z,62.30
2023-03-13T06:45:55.280Z,62.43
2023-03-13T06:48:23.286Z,62.29
2023-03-13T06:50:51.337Z,62.33
2023-03-13T06:53:20.887Z,62.42
2023-03-13T06:55:48.758Z,62.36
2023-03-13T06:58:31.679Z,62.53
2023-03-13T07:00:49.929Z,62.54
2023-03-13T07:03:17.728Z,62.66
2023-03-13T07:05:45.500Z,62.22
2023-03-13T07:08:13.253Z,62.37
2023-03-13T07:10:43.174Z,62.39
2023-03-13T07:13:10.852Z,62.44
2023-03-13T07:15:38.348Z,62.36
2023-03-13T07:18:06.359Z,62.37
2023-03-13T07:20:34.833Z,62.51
2023-03-13T07:23:02.869Z,62.51
2023-03-13T07:25:30.597Z,62.51
2023-03-13T07:28:00.659Z,62.46
2023-03-13T07:30:28.704Z,62.65
2023-03-13T07:32:58.247Z,62.47
2023-03-13T07:35:25.997Z,62.65
2023-03-13T07:37:53.801Z,62.85
2023-03-13T07:40:21.452Z,62.67
2023-03-13T07:42:49.011Z,61.95
2023-03-13T07:45:16.992Z,60.95
2023-03-13T07:47:45.080Z,58.82
2023-03-13T07:50:12.847Z,58.70
2023-03-13T07:52:40.559Z,57.36
2023-03-13T07:55:08.922Z,53.53
2023-03-13T07:57:36.821Z,53.34
2023-03-13T08:00:07.771Z,53.10
2023-03-13T08:02:37.324Z,51.08
2023-03-13T08:05:05.681Z,51.21
2023-03-13T08:07:33.554Z,51.99
2023-03-13T08:10:01.315Z,51.92
2023-03-13T08:12:29.222Z,50.63
2023-03-13T08:14:57.028Z,49.87
2023-03-13T08:17:24.902Z,48.99
2023-03-13T08:19:52.479Z,49.18
2023-03-13T08:22:20.438Z,46.93
2023-03-13T08:24:48.168Z,46.39
2023-03-13T08:27:15.817Z,44.73
2023-03-13T08:29:43.812Z,44.47
2023-03-13T08:32:12.584Z,42.81
2023-03-13T08:34:40.380Z,44.23
2023-03-13T08:37:08.212Z,43.60
2023-03-13T08:39:35.995Z,43.79
2023-03-13T08:42:04.010Z,39.44
2023-03-13T08:44:31.605Z,39.92
2023-03-13T08:46:59.534Z,41.49
2023-03-13T08:49:27.284Z,41.38
2023-03-13T08:51:56.206Z,40.90
2023-03-13T08:54:24.097Z,40.31
2023-03-13T08:56:51.839Z,40.71
2023-03-13T08:59:19.667Z,40.17
2023-03-13T09:01:47.439Z,40.11
2023-03-13T09:04:15.172Z,38.89
2023-03-13T09:06:42.826Z,39.29
2023-03-13T09:09:11.964Z,39.28
2023-03-13T09:11:39.618Z,35.35
2023-03-13T09:14:09.913Z,33.31
2023-03-13T09:16:37.923Z,36.50
2023-03-13T09:19:06.274Z,35.84
2023-03-13T09:21:35.771Z,34.92
2023-03-13T09:24:03.665Z,34.84
2023-03-13T09:26:31.503Z,35.81
2023-03-13T09:28:59.377Z,34.00
2023-03-13T09:31:30.482Z,33.19
2023-03-13T09:33:59.614Z,33.32
2023-03-13T09:36:28.041Z,33.84
2023-03-13T09:38:58.758Z,32.80
2023-03-13T09:41:40.659Z,32.70
2023-03-13T09:44:29.094Z,32.83
2023-03-13T09:47:24.669Z,29.20
2023-03-13T09:50:00.614Z,28.51
2023-03-13T09:52:40.512Z,26.97
2023-03-13T09:55:20.980Z,27.99
2023-03-13T09:57:55.941Z,30.22
2023-03-13T10:00:41.898Z,30.66
2023-03-13T10:03:30.452Z,31.56
2023-03-13T10:06:02.401Z,31.55
2023-03-13T10:08:35.166Z,29.30
2023-03-13T10:11:32.736Z,27.93
2023-03-13T10:14:23.294Z,29.71
2023-03-13T10:17:05.649Z,29.73
2023-03-13T10:19:49.781Z,30.97
2023-03-13T10:22:23.162Z,32.28
2023-03-13T10:25:11.635Z,33.49
2023-03-13T10:27:51.240Z,34.04
2023-03-13T10:30:31.654Z,32.71
2023-03-13T10:33:10.767Z,32.91
2023-03-13T10:35:42.175Z,32.48
2023-03-13T10:38:24.592Z,33.54
2023-03-13T10:41:08.415Z,31.84
2023-03-13T10:43:39.077Z,30.92
2023-03-13T10:49:10.031Z,32.86
2023-03-13T10:51:40.470Z,31.86
2023-03-13T10:54:35.431Z,32.96
2023-03-13T10:57:23.199Z,32.48
2023-03-13T10:59:52.515Z,32.80
2023-03-13T11:02:32.203Z,31.84
2023-03-13T11:05:01.022Z,31.51
2023-03-13T11:07:39.992Z,31.58
2023-03-13T11:10:21.280Z,31.37
2023-03-13T11:12:54.971Z,29.68
2023-03-13T11:15:48.784Z,28.33
2023-03-13T11:18:30.834Z,28.88
2023-03-13T11:21:15.691Z,30.48
2023-03-13T11:23:37.127Z,30.84
2023-03-13T11:26:19.422Z,30.93
2023-03-13T11:29:08.039Z,29.93
2023-03-13T11:31:49.091Z,30.42
2023-03-13T11:34:28.161Z,29.29
2023-03-13T11:37:04.048Z,30.20
2023-03-13T11:40:13.682Z,30.43
2023-03-13T11:42:55.283Z,30.80
2023-03-13T11:45:55.531Z,30.11
2023-03-13T11:48:37.644Z,30.87
2023-03-13T11:51:33.381Z,30.48
2023-03-13T11:54:41.379Z,30.10
2023-03-13T11:57:37.459Z,27.78
2023-03-13T12:00:16.356Z,28.46
2023-03-13T12:03:18.535Z,27.76
2023-03-13T12:05:58.991Z,25.98
2023-03-13T12:08:46.193Z,27.83
2023-03-13T12:11:18.196Z,27.55
2023-03-13T12:14:03.754Z,28.45
2023-03-13T12:16:42.819Z,27.99
2023-03-13T12:19:17.830Z,26.21
2023-03-13T12:21:52.654Z,27.20
2023-03-13T12:24:28.817Z,26.57
2023-03-13T12:27:18.727Z,25.20
2023-03-13T12:30:06.609Z,25.90
2023-03-13T12:33:09.270Z,26.51
2023-03-13T12:35:40.593Z,26.18
2023-03-13T12:38:34.804Z,24.89
2023-03-13T12:41:35.406Z,26.17
2023-03-13T12:44:09.296Z,26.88
2023-03-13T12:47:00.450Z,27.24
2023-03-13T12:49:54.537Z,27.18
2023-03-13T12:52:51.206Z,26.26
2023-03-13T12:55:46.567Z,26.09
2023-03-13T12:58:51.612Z,27.35
2023-03-13T13:01:33.634Z,27.93
2023-03-13T13:04:14.994Z,27.94
2023-03-13T13:07:16.978Z,28.04
2023-03-13T13:10:12.878Z,28.72
2023-03-13T13:13:08.852Z,27.84
2023-03-13T13:15:46.555Z,28.22
2023-03-13T13:18:30.450Z,28.51
2023-03-13T13:21:22.616Z,27.08
2023-03-13T13:23:55.292Z,26.87
2023-03-13T13:26:35.790Z,26.92
2023-03-13T13:29:14.568Z,25.98
2023-03-13T13:31:51.215Z,26.79
2023-03-13T13:34:36.340Z,26.83
2023-03-13T13:37:24.436Z,27.18
2023-03-13T13:39:54.641Z,26.90
2023-03-13T13:42:40.351Z,27.49
2023-03-13T13:45:25.674Z,27.56
2023-03-13T13:48:17.233Z,27.38
2023-03-13T13:51:14.292Z,27.62
2023-03-13T13:54:01.105Z,27.30
2023-03-13T13:56:42.558Z,27.38
2023-03-13T13:59:30.534Z,27.40
2023-03-13T14:02:18.188Z,27.64
2023-03-13T14:05:10.892Z,27.58
2023-03-13T14:08:00.609Z,27.27
2023-03-13T14:10:38.653Z,27.25
2023-03-13T14:13:24.500Z,26.27
2023-03-13T14:15:53.705Z,26.06
2023-03-13T14:18:27.946Z,25.43
2023-03-13T14:21:03.576Z,25.74
2023-03-13T14:23:43.873Z,25.12
2023-03-13T14:26:22.363Z,24.97
2023-03-13T14:28:59.033Z,26.06
2023-03-13T14:31:35.078Z,26.45
2023-03-13T14:34:08.148Z,26.63
2023-03-13T14:37:01.435Z,27.10
2023-03-13T14:39:40.253Z,27.49
2023-03-13T14:42:18.081Z,27.70
2023-03-13T14:44:49.593Z,27.70
2023-03-13T14:47:32.403Z,27.75
2023-03-13T14:50:04.285Z,27.98
2023-03-13T14:52:46.870Z,28.43
2023-03-13T14:55:27.948Z,28.96
2023-03-13T14:58:05.007Z,28.96
2023-03-13T15:00:44.847Z,29.16
2023-03-13T15:03:21.368Z,28.89
2023-03-13T15:06:15.831Z,29.17
2023-03-13T15:09:11.704Z,29.42
2023-03-13T15:11:54.929Z,29.64
2023-03-13T15:14:39.406Z,28.38
2023-03-13T15:17:15.026Z,29.11
2023-03-13T15:19:50.112Z,29.40
2023-03-13T15:22:21.803Z,29.55
2023-03-13T15:25:05.054Z,29.52
2023-03-13T15:27:23.266Z,29.93
2023-03-13T15:29:51.039Z,30.19
2023-03-13T15:32:37.840Z,30.38
2023-03-13T15:35:29.012Z,31.13
2023-03-13T15:37:59.884Z,31.20
2023-03-13T15:40:30.811Z,31.32
2023-03-13T15:42:59.139Z,31.34
2023-03-13T15:45:26.801Z,31.44
2023-03-13T15:47:54.909Z,31.63
2023-03-13T15:50:24.719Z,31.85
2023-03-13T15:52:52.399Z,32.04
2023-03-13T15:55:20.376Z,32.07
2023-03-13T15:57:50.487Z,32.24
2023-03-13T16:00:25.856Z,32.39
2023-03-13T16:02:58.219Z,32.62
2023-03-13T16:05:36.273Z,32.70
2023-03-13T16:08:04.775Z,32.90
2023-03-13T16:10:32.884Z,33.13
2023-03-13T16:13:02.814Z,33.19
2023-03-13T16:15:30.561Z,33.44
2023-03-13T16:17:58.521Z,33.59
2023-03-13T16:20:28.424Z,33.78
2023-03-13T16:22:56.582Z,34.02
2023-03-13T16:25:25.311Z,34.10
2023-03-13T16:27:55.018Z,34.41
2023-03-13T16:30:30.118Z,34.56
2023-03-13T16:32:59.297Z,34.80
2023-03-13T16:35:28.580Z,34.97
2023-03-13T16:37:57.822Z,35.30
2023-03-13T16:40:30.320Z,35.82
2023-03-13T16:42:58.413Z,36.30
2023-03-13T16:45:26.618Z,36.74
2023-03-13T16:47:54.573Z,37.10
2023-03-13T16:50:30.363Z,37.34
2023-03-13T16:52:58.181Z,37.69
2023-03-13T16:55:36.407Z,37.98
2023-03-13T16:58:05.017Z,38.15
2023-03-13T17:00:32.997Z,38.21
2023-03-13T17:03:00.860Z,38.37
2023-03-13T17:05:29.485Z,38.67
2023-03-13T17:07:59.772Z,39.14
2023-03-13T17:10:32.285Z,39.83
2023-03-13T17:13:00.118Z,40.65
2023-03-13T17:15:28.993Z,41.24
2023-03-13T17:18:02.585Z,41.65
2023-03-13T17:20:48.314Z,42.19
2023-03-13T17:23:16.286Z,42.49
2023-03-13T17:25:44.205Z,43.00
2023-03-13T17:28:14.862Z,43.59
2023-03-13T17:30:42.764Z,43.79
2023-03-13T17:33:10.603Z,44.37
2023-03-13T17:35:38.622Z,44.51
2023-03-13T17:38:06.189Z,44.50
2023-03-13T17:40:34.431Z,44.87
2023-03-13T17:43:03.125Z,44.96
2023-03-13T17:45:32.751Z,45.28
2023-03-13T17:48:00.392Z,45.71
2023-03-13T17:50:29.036Z,45.81
2023-03-13T17:52:56.547Z,46.08
2023-03-13T17:55:24.816Z,46.42
2023-03-13T17:57:53.195Z,46.71
2023-03-13T18:00:35.348Z,47.05
2023-03-13T18:03:03.507Z,47.50
2023-03-13T18:05:31.378Z,47.92
2023-03-13T18:07:59.239Z,48.39
2023-03-13T18:10:30.346Z,48.85
2023-03-13T18:12:58.638Z,48.97
2023-03-13T18:15:26.955Z,49.05
2023-03-13T18:17:54.817Z,49.20
2023-03-13T18:20:26.997Z,49.53
2023-03-13T18:26:08.676Z,50.00
2023-03-13T18:28:55.976Z,50.35
2023-03-13T18:31:44.963Z,50.98
2023-03-13T18:34:15.502Z,51.41
2023-03-13T18:36:44.011Z,51.44
2023-03-13T18:39:22.603Z,51.74
2023-03-13T18:41:52.331Z,51.88
2023-03-13T18:44:27.020Z,52.10
2023-03-13T18:46:55.037Z,52.51
2023-03-13T18:49:24.345Z,53.11
2023-03-13T18:51:53.545Z,53.56
2023-03-13T18:54:21.537Z,53.98
2023-03-13T18:56:49.254Z,54.74
2023-03-13T18:59:22.252Z,54.92
2023-03-13T19:01:50.546Z,54.93
2023-03-13T19:04:19.633Z,55.23
2023-03-13T19:06:47.746Z,55.54
2023-03-13T19:09:41.733Z,55.69
2023-03-13T19:11:48.663Z,55.54
2023-03-13T19:14:16.776Z,55.81
2023-03-13T19:16:52.492Z,55.83
2023-03-13T19:19:24.167Z,55.86
2023-03-13T19:21:56.524Z,56.00
2023-03-13T19:24:26.793Z,56.20
2023-03-13T19:26:59.437Z,56.63
2023-03-13T19:29:39.930Z,56.78
2023-03-13T19:32:28.546Z,56.81
2023-03-13T19:34:56.210Z,57.54
2023-03-13T19:37:24.521Z,57.39
2023-03-13T19:39:52.301Z,57.51
2023-03-13T19:42:20.283Z,57.52
2023-03-13T19:44:49.815Z,58.49
2023-03-13T19:47:17.820Z,58.39
2023-03-13T19:49:49.047Z,58.33
2023-03-13T19:52:18.856Z,58.36
2023-03-13T19:54:47.186Z,58.80
2023-03-13T19:57:16.849Z,58.61
2023-03-13T19:59:45.306Z,59.54
2023-03-13T20:02:13.257Z,59.85
2023-03-13T20:04:43.356Z,60.48
2023-03-13T20:07:11.375Z,60.62
2023-03-13T20:09:39.196Z,60.67
2023-03-13T20:12:07.376Z,60.72
2023-03-13T20:14:35.361Z,60.71
2023-03-13T20:17:03.281Z,60.81
2023-03-13T20:19:31.164Z,60.93
2023-03-13T20:22:00.866Z,60.99
2023-03-13T20:24:34.691Z,61.19
2023-03-13T20:27:03.836Z,61.11
2023-03-13T20:29:33.425Z,61.26
2023-03-13T20:32:03.088Z,61.55
2023-03-13T20:34:31.144Z,61.44
2023-03-13T20:36:59.546Z,61.61
2023-03-13T20:39:28.532Z,61.38
2023-03-13T20:41:56.955Z,61.50
2023-03-13T20:44:41.329Z,61.70
2023-03-13T20:47:25.771Z,61.82
2023-03-13T20:49:53.423Z,61.77
2023-03-13T20:52:21.155Z,61.96
2023-03-13T20:54:49.075Z,61.96
2023-03-13T20:57:18.536Z,62.27
2023-03-13T20:59:46.567Z,62.33
2023-03-13T21:02:14.616Z,62.21
2023-03-13T21:04:42.829Z,62.36
2023-03-13T21:07:10.596Z,62.52
2023-03-13T21:09:38.425Z,63.01
2023-03-13T21:12:06.656Z,62.73
2023-03-13T21:14:35.879Z,62.72
2023-03-13T21:17:04.040Z,62.74
2023-03-13T21:19:33.736Z,62.56
2023-03-13T21:22:01.933Z,62.69
2023-03-13T21:24:29.650Z,62.79
2023-03-13T21:26:58.952Z,62.87
2023-03-13T21:29:26.570Z,62.79
2023-03-13T21:31:54.132Z,62.77
2023-03-13T21:34:21.927Z,62.95
2023-03-13T21:36:49.798Z,63.15
2023-03-13T21:39:20.907Z,63.30
2023-03-13T21:41:48.894Z,63.58
2023-03-13T21:44:18.600Z,63.60
2023-03-13T21:46:48.238Z,63.60
2023-03-13T21:49:15.930Z,63.47
2023-03-13T21:51:44.123Z,63.52
2023-03-13T21:54:12.235Z,63.51
2023-03-13T21:56:40.489Z,63.52
2023-03-13T21:59:08.799Z,63.79
2023-03-13T22:01:36.707Z,63.69
2023-03-13T22:04:04.560Z,63.84
2023-03-13T22:06:34.332Z,63.96
2023-03-13T22:09:05.892Z,64.01
2023-03-13T22:11:33.896Z,64.07
2023-03-13T22:14:03.624Z,64.12
2023-03-13T22:16:35.052Z,64.04
2023-03-13T22:19:03.653Z,64.07
2023-03-13T22:21:34.801Z,64.21
2023-03-13T22:24:02.944Z,64.37
2023-03-13T22:26:31.936Z,64.69
2023-03-13T22:28:59.539Z,64.48
2023-03-13T22:31:27.141Z,64.64
2023-03-13T22:33:56.717Z,64.54
2023-03-13T22:36:24.723Z,64.47
2023-03-13T22:38:56.681Z,64.62
2023-03-13T22:41:24.571Z,64.67
2023-03-13T22:43:52.667Z,64.64
2023-03-13T22:46:20.875Z,64.96
2023-03-13T22:48:49.060Z,64.74
2023-03-13T22:51:16.833Z,64.73
2023-03-13T22:53:44.559Z,64.81
2023-03-13T22:56:14.527Z,64.92
2023-03-13T22:58:44.419Z,64.89
2023-03-13T23:01:16.832Z,64.79
2023-03-13T23:03:45.968Z,64.85
2023-03-13T23:06:21.484Z,64.87
2023-03-13T23:08:50.059Z,64.82
2023-03-13T23:11:18.503Z,64.80
2023-03-13T23:13:46.517Z,65.04
2023-03-13T23:16:14.775Z,65.26
2023-03-13T23:18:43.152Z,65.24
2023-03-13T23:21:14.127Z,65.29
2023-03-13T23:23:42.940Z,65.46
2023-03-13T23:26:13.917Z,65.55
2023-03-13T23:28:41.977Z,66.06
2023-03-13T23:31:17.040Z,66.28
2023-03-13T23:33:46.360Z,66.42
2023-03-13T23:36:17.505Z,66.36
2023-03-13T23:38:51.713Z,66.18
2023-03-13T23:41:21.187Z,66.17
2023-03-13T23:43:48.742Z,66.04
2023-03-13T23:46:20.897Z,65.96
2023-03-13T23:48:50.552Z,65.89
2023-03-13T23:51:18.490Z,65.94
2023-03-13T23:53:46.230Z,65.83
2023-03-13T23:56:14.877Z,65.90
2023-03-13T23:58:43.138Z,65.85
